Terminal Aerodrome Forecast
Issued by NWS

Home | Current Version | Previous Version | Text Only | Print | Product List | Glossary On
Versions: 1 2 3 4 5 6 7 8 9 10 11 12 13
000
FTUS42 KFFC 201100
TAFFTY
TAF
KFTY 201136Z 2012/2112 00000KT P6SM SKC
      TEMPO 2012/2013 5SM BR
     FM201600 23004KT P6SM FEW040 FEW250
     FM210000 00000KT P6SM SCT100=

USA.gov is the U.S. government's official web portal to all federal, state and local government web resources and services.